Time;durP1;ratioP1;P1;durP2;ratioP2;P2;SDS_P1;SDS_P2;PMS_P1;PMS_P2;Temp;Humidity;BMP_temperature;BMP_pressure;BME280_temperature;BME280_humidity;BME280_pressure;Samples;Min_cycle;Max_cycle;Signal;HPM_P1;HPM_P2
2021/12/17 00:00:09;;;;;;;;;48.50;40.75;;;;;10.77;100.00;103442.34;5076201;28;45506;-83
2021/12/17 00:05:46;;;;;;;;;50.25;38.25;;;;;10.73;100.00;103431.56;5058208;28;45466;-81
2021/12/17 00:08:13;;;;;;;;;49.50;38.75;;;;;10.73;100.00;103432.50;5057343;28;45425;-83
2021/12/17 00:10:47;;;;;;;;;53.00;42.00;;;;;10.68;100.00;103433.75;5075783;28;45523;-83
2021/12/17 00:13:12;;;;;;;;;44.75;38.50;;;;;10.65;100.00;103436.06;5057572;27;47864;-81
2021/12/17 00:15:39;;;;;;;;;46.00;39.00;;;;;10.66;100.00;103432.72;5075569;28;45372;-81
2021/12/17 00:18:35;;;;;;;;;47.50;38.00;;;;;10.64;100.00;103435.19;5076041;28;45216;-80
2021/12/17 00:53:33;;;;;;;;;52.00;41.00;;;;;10.37;100.00;103425.88;5079369;27;45370;-81
2021/12/17 00:55:59;;;;;;;;;47.25;38.00;;;;;10.36;100.00;103418.88;5079029;28;45330;-82
2021/12/17 00:58:25;;;;;;;;;44.75;36.25;;;;;10.36;100.00;103419.81;5078870;28;45332;-82
2021/12/17 01:00:50;;;;;;;;;44.75;38.50;;;;;10.36;100.00;103414.63;5078707;28;45353;-82
2021/12/17 01:03:16;;;;;;;;;40.25;35.75;;;;;10.35;100.00;103420.56;5079117;27;45338;-82
2021/12/17 01:05:43;;;;;;;;;50.25;38.25;;;;;10.34;100.00;103415.25;5078556;28;45790;-82
2021/12/17 01:08:08;;;;;;;;;44.00;37.50;;;;;10.30;100.00;103408.00;5079004;27;45913;-81
2021/12/17 01:10:55;;;;;;;;;42.25;37.50;;;;;10.29;100.00;103406.19;5078390;27;45213;-82
2021/12/17 01:13:22;;;;;;;;;50.00;38.75;;;;;10.29;100.00;103409.66;5077555;28;45388;-81
2021/12/17 01:15:48;;;;;;;;;47.00;37.50;;;;;10.28;100.00;103418.19;5078186;28;46626;-81
2021/12/17 01:18:18;;;;;;;;;45.75;37.50;;;;;10.26;100.00;103418.84;5078611;28;45989;-81
2021/12/17 01:23:46;;;;;;;;;48.25;38.75;;;;;10.25;100.00;103415.34;5078293;27;45438;-81
2021/12/17 01:36:50;;;;;;;;;45.25;38.75;;;;;10.22;100.00;103415.97;5077430;27;45436;-82
2021/12/17 01:42:06;;;;;;;;;48.25;38.00;;;;;10.23;100.00;103406.53;5078585;27;45477;-82
2021/12/17 01:44:38;;;;;;;;;44.25;36.50;;;;;10.22;100.00;103404.72;5060547;28;45334;-82
2021/12/17 01:47:07;;;;;;;;;50.50;37.25;;;;;10.21;100.00;103400.31;5078237;27;46058;-82
2021/12/17 02:00:35;;;;;;;;;34.00;33.25;;;;;10.09;100.00;103407.00;5077651;28;45506;-82
2021/12/17 02:03:05;;;;;;;;;41.25;34.00;;;;;10.05;100.00;103409.31;5078342;27;45240;-83
2021/12/17 02:05:31;;;;;;;;;42.50;35.25;;;;;10.03;100.00;103403.09;5060394;28;45477;-82
2021/12/17 02:07:58;;;;;;;;;42.00;35.25;;;;;10.00;100.00;103401.91;5077551;27;45525;-83
2021/12/17 02:30:29;;;;;;;;;48.50;39.25;;;;;9.83;100.00;103390.97;4996958;28;45889;-80
2021/12/17 02:32:55;;;;;;;;;50.50;39.25;;;;;9.82;100.00;103386.56;4996585;28;45901;-80
2021/12/17 02:35:30;;;;;;;;;41.00;35.50;;;;;9.91;100.00;103404.59;4979560;28;45554;-80
2021/12/17 02:37:56;;;;;;;;;41.75;36.00;;;;;9.93;100.00;103399.53;4979097;28;45626;-80
2021/12/17 02:45:58;;;;;;;;;51.25;38.50;;;;;9.94;100.00;103399.66;4958877;28;45503;-80
2021/12/17 02:48:24;;;;;;;;;48.75;37.00;;;;;9.97;100.00;103401.66;4979547;28;45338;-80
2021/12/17 02:50:56;;;;;;;;;47.00;39.00;;;;;9.96;100.00;103402.41;4996502;28;45384;-80
2021/12/17 02:53:23;;;;;;;;;46.75;36.00;;;;;9.91;100.00;103395.13;4996881;28;45278;-79
2021/12/17 02:55:57;;;;;;;;;40.75;34.75;;;;;9.75;100.00;103368.69;4996386;28;45406;-79
2021/12/17 02:58:26;;;;;;;;;51.00;39.25;;;;;9.84;100.00;103392.78;4997152;28;45340;-79
2021/12/17 03:00:52;;;;;;;;;47.50;38.25;;;;;9.83;100.00;103390.97;4996247;28;46206;-80
2021/12/17 03:03:21;;;;;;;;;43.00;36.00;;;;;9.84;100.00;103389.28;4995584;28;45956;-79
2021/12/17 03:05:48;;;;;;;;;41.25;36.00;;;;;9.85;100.00;103388.50;4996280;28;45286;-80
2021/12/17 03:08:15;;;;;;;;;39.50;35.25;;;;;9.84;100.00;103382.44;4979123;28;45453;-80
2021/12/17 03:10:42;;;;;;;;;44.00;34.00;;;;;9.78;100.00;103371.53;4978512;28;47117;-80
2021/12/17 03:13:09;;;;;;;;;39.50;35.50;;;;;9.78;100.00;103374.09;4979062;28;46021;-81
2021/12/17 03:15:51;;;;;;;;;47.50;39.50;;;;;9.81;100.00;103387.31;4996087;28;45337;-80
2021/12/17 03:23:44;;;;;;;;;49.25;36.25;;;;;9.73;100.00;103370.22;4995718;28;45425;-81
2021/12/17 03:26:13;;;;;;;;;48.25;36.50;;;;;9.77;100.00;103382.66;4996525;28;45419;-80
2021/12/17 03:28:41;;;;;;;;;43.50;37.50;;;;;9.73;100.00;103381.47;4996575;28;45320;-80
2021/12/17 03:31:08;;;;;;;;;44.50;36.50;;;;;9.70;100.00;103367.34;4996561;28;46129;-81
2021/12/17 03:33:35;;;;;;;;;43.25;37.00;;;;;9.60;100.00;103352.69;4995628;28;45848;-80
2021/12/17 03:36:01;;;;;;;;;44.75;37.50;;;;;9.66;100.00;103368.75;4996267;28;45381;-80
2021/12/17 03:38:28;;;;;;;;;48.00;36.75;;;;;9.69;100.00;103387.16;4996514;28;45476;-80
2021/12/17 03:41:08;;;;;;;;;48.25;37.00;;;;;9.68;100.00;103387.91;4995735;28;45483;-80
2021/12/17 03:43:34;;;;;;;;;44.25;35.75;;;;;9.68;100.00;103385.31;4996022;28;45293;-80
2021/12/17 03:46:03;;;;;;;;;47.75;37.25;;;;;9.68;100.00;103385.31;4996078;28;45218;-81
2021/12/17 03:48:35;;;;;;;;;40.25;32.75;;;;;9.71;100.00;103387.28;4995860;28;45567;-80
2021/12/17 03:51:01;;;;;;;;;40.50;33.50;;;;;9.61;100.00;103367.41;4996165;28;46027;-81
2021/12/17 03:53:26;;;;;;;;;46.75;36.00;;;;;9.70;100.00;103385.44;4995816;28;45353;-80
2021/12/17 03:55:52;;;;;;;;;47.25;38.00;;;;;9.73;100.00;103394.38;4978000;28;45350;-80
2021/12/17 03:58:19;;;;;;;;;45.50;36.75;;;;;9.74;100.00;103379.78;4996170;28;45527;-80
2021/12/17 04:00:45;;;;;;;;;50.00;36.50;;;;;9.82;100.00;103398.59;4995548;28;46015;-80
2021/12/17 04:03:11;;;;;;;;;34.75;32.50;;;;;9.75;100.00;103371.28;4995666;28;45748;-80
2021/12/17 04:05:37;;;;;;;;;40.25;34.25;;;;;9.81;100.00;103384.75;4995707;28;45314;-80
2021/12/17 04:08:02;;;;;;;;;52.50;37.50;;;;;9.84;100.00;103389.28;4996141;28;45244;-80
2021/12/17 04:10:37;;;;;;;;;40.00;36.00;;;;;9.93;100.00;103389.19;4996016;28;45456;-81
2021/12/17 04:13:14;;;;;;;;;42.25;36.00;;;;;9.97;100.00;103393.88;4996042;28;45376;-80
2021/12/17 04:15:43;;;;;;;;;43.00;36.00;;;;;10.04;100.00;103383.28;4999666;28;45377;-80
2021/12/17 04:18:10;;;;;;;;;38.25;33.50;;;;;10.04;100.00;103380.72;5000170;28;45448;-80
2021/12/17 04:20:37;;;;;;;;;41.75;33.50;;;;;10.07;100.00;103386.16;4999284;28;45256;-80
2021/12/17 04:23:03;;;;;;;;;41.25;34.50;;;;;10.06;100.00;103380.06;5016067;28;45332;-80
2021/12/17 04:25:29;;;;;;;;;44.50;36.00;;;;;9.97;100.00;103361.13;5015582;28;45328;-81
2021/12/17 04:27:56;;;;;;;;;44.25;35.50;;;;;10.04;100.00;103365.16;5000621;28;45412;-79
2021/12/17 04:30:22;;;;;;;;;40.75;36.00;;;;;10.11;100.00;103374.38;4999213;28;45389;-80
2021/12/17 04:32:47;;;;;;;;;43.75;37.50;;;;;10.05;100.00;103349.78;4998903;28;45923;-80
2021/12/17 04:35:13;;;;;;;;;35.75;30.75;;;;;10.16;100.00;103366.25;4998975;28;45371;-80
2021/12/17 04:37:39;;;;;;;;;33.50;27.50;;;;;10.17;100.00;103364.56;4999413;28;45634;-82
2021/12/17 04:40:05;;;;;;;;;43.75;36.25;;;;;10.13;100.00;103352.16;4998164;28;45432;-81
2021/12/17 04:42:56;;;;;;;;;37.50;32.50;;;;;10.18;100.00;103346.59;4998935;28;45369;-82
2021/12/17 04:45:23;;;;;;;;;48.50;38.00;;;;;10.30;100.00;103366.56;4998969;28;45499;-81
2021/12/17 04:58:45;;;;;;;;;36.50;32.00;;;;;10.36;100.00;103360.25;4998605;28;45306;-81
2021/12/17 05:01:14;;;;;;;;;39.75;34.50;;;;;10.38;100.00;103345.75;4998240;28;46323;-81
2021/12/17 05:03:41;;;;;;;;;33.25;29.50;;;;;10.50;100.00;103356.28;4998469;28;45336;-81
2021/12/17 05:06:07;;;;;;;;;39.25;32.25;;;;;10.59;100.00;103365.63;4998566;28;45278;-81
2021/12/17 05:08:33;;;;;;;;;37.25;32.00;;;;;10.64;100.00;103364.31;4999048;28;45325;-81
2021/12/17 05:11:26;;;;;;;;;40.25;32.75;;;;;10.67;100.00;103365.50;4998241;28;45362;-81
2021/12/17 05:19:36;;;;;;;;;35.00;32.00;;;;;10.67;100.00;103357.72;4998723;28;45407;-82
2021/12/17 05:22:05;;;;;;;;;46.50;37.25;;;;;10.53;100.00;103350.44;4998233;28;46590;-80
2021/12/17 05:24:31;;;;;;;;;38.50;30.25;;;;;10.63;100.00;103359.94;4997877;28;45810;-81
2021/12/17 05:26:57;;;;;;;;;43.75;35.00;;;;;10.68;100.00;103369.00;4996985;28;45305;-81
2021/12/17 05:29:22;;;;;;;;;42.00;32.00;;;;;10.61;100.00;103359.78;4998573;28;45391;-82
2021/12/17 05:31:48;;;;;;;;;33.50;29.00;;;;;10.71;100.00;103371.84;4997941;28;46035;-81
2021/12/17 05:34:13;;;;;;;;;33.00;29.75;;;;;10.74;100.00;103364.34;4998031;28;45311;-81
2021/12/17 05:36:39;;;;;;;;;41.75;35.50;;;;;10.78;100.00;103368.09;4997587;28;45231;-81
2021/12/17 05:39:04;;;;;;;;;39.25;31.75;;;;;10.80;100.00;103366.53;4998244;28;45326;-81
2021/12/17 05:41:30;;;;;;;;;34.25;32.75;;;;;10.83;100.00;103364.19;4997844;28;45897;-81
2021/12/17 05:43:57;;;;;;;;;38.50;33.00;;;;;10.85;100.00;103352.28;4997578;28;45519;-81
2021/12/17 05:46:38;;;;;;;;;37.25;32.25;;;;;10.80;100.00;103346.72;4997374;28;45515;-81
2021/12/17 05:49:05;;;;;;;;;41.25;35.50;;;;;10.86;100.00;103358.38;4998047;28;45765;-81
2021/12/17 05:51:30;;;;;;;;;36.00;28.75;;;;;10.87;100.00;103358.50;4997626;28;45518;-81
2021/12/17 05:53:56;;;;;;;;;35.25;30.50;;;;;10.95;100.00;103357.47;4997502;28;45353;-79
2021/12/17 05:56:22;;;;;;;;;34.50;29.25;;;;;10.98;100.00;103354.22;4997866;28;45309;-78
2021/12/17 05:58:48;;;;;;;;;35.25;32.75;;;;;11.00;100.00;103360.44;4997580;28;45436;-79
2021/12/17 06:01:13;;;;;;;;;39.50;34.50;;;;;10.98;100.00;103354.22;4996998;28;45375;-79
2021/12/17 06:03:39;;;;;;;;;36.25;32.75;;;;;10.99;100.00;103350.84;4997554;28;45435;-81
2021/12/17 06:06:05;;;;;;;;;33.75;32.00;;;;;11.00;100.00;103352.66;4997637;28;45333;-79
2021/12/17 06:08:33;;;;;;;;;39.00;33.75;;;;;11.06;100.00;103358.38;4997942;28;45480;-80
2021/12/17 06:10:58;;;;;;;;;38.75;34.50;;;;;11.03;100.00;103341.66;4997159;28;46264;-79
2021/12/17 06:13:24;;;;;;;;;41.25;34.00;;;;;11.04;100.00;103338.28;4997571;28;45435;-80
2021/12/17 06:15:51;;;;;;;;;44.50;34.50;;;;;10.99;100.00;103337.88;4997271;28;45330;-79
2021/12/17 06:18:17;;;;;;;;;38.00;31.75;;;;;11.10;100.00;103356.97;4997545;28;45353;-80
2021/12/17 06:20:43;;;;;;;;;39.75;35.00;;;;;11.11;100.00;103359.66;4997256;28;46263;-80
2021/12/17 06:23:08;;;;;;;;;38.00;33.50;;;;;11.07;100.00;103348.91;4996091;28;45427;-79
2021/12/17 06:25:34;;;;;;;;;42.00;35.00;;;;;10.99;100.00;103327.53;4997250;28;45464;-80
2021/12/17 06:28:00;;;;;;;;;46.00;35.50;;;;;11.15;100.00;103366.00;4997689;28;45345;-80
2021/12/17 06:30:25;;;;;;;;;38.50;32.75;;;;;11.14;100.00;103364.19;4997248;28;45939;-79
2021/12/17 06:32:51;;;;;;;;;36.75;34.00;;;;;11.13;100.00;103355.53;4974745;28;45385;-80
2021/12/17 06:35:17;;;;;;;;;40.25;33.00;;;;;11.13;100.00;103365.91;4988728;28;45487;-80
2021/12/17 06:37:43;;;;;;;;;35.50;32.25;;;;;11.07;100.00;103348.91;4980012;28;45599;-80
2021/12/17 06:40:10;;;;;;;;;37.25;31.25;;;;;11.06;100.00;103347.09;5000675;28;47045;-79
2021/12/17 06:42:36;;;;;;;;;47.50;34.25;;;;;11.01;100.00;103349.31;4993234;28;45800;-80
2021/12/17 06:45:03;;;;;;;;;7.50;6.25;;;;;11.08;100.00;103366.28;4994516;28;45460;-80
2021/12/17 06:47:32;;;;;;;;;40.00;31.25;;;;;11.02;100.00;103357.97;4987678;28;45620;-79
2021/12/17 06:54:37;;;;;;;;;39.75;32.25;;;;;11.08;100.00;103361.09;4988642;28;45214;-80
2021/12/17 06:58:39;;;;;;;;;43.00;34.00;;;;;11.09;100.00;103362.91;4990496;28;45472;-80
2021/12/17 07:06:17;;;;;;;;;45.00;34.25;;;;;10.99;100.00;103363.81;4992430;28;45251;-78
2021/12/17 07:11:22;;;;;;;;;41.50;36.25;;;;;11.07;100.00;103372.25;4997350;28;45499;-78
2021/12/17 07:32:35;;;;;;;;;40.50;32.50;;;;;11.13;100.00;103368.50;4977163;28;45818;-85
2021/12/17 07:39:53;;;;;;;;;35.00;31.25;;;;;11.18;100.00;103378.31;4977610;28;45412;-85
2021/12/17 07:42:19;;;;;;;;;37.00;30.25;;;;;11.03;100.00;103360.72;4983472;28;46466;-83
2021/12/17 07:44:45;;;;;;;;;41.50;35.00;;;;;11.10;100.00;103365.63;4986747;28;45219;-85
2021/12/17 07:47:10;;;;;;;;;34.25;32.50;;;;;11.23;100.00;103387.41;4997601;28;45459;-87
2021/12/17 07:49:36;;;;;;;;;40.00;33.50;;;;;11.20;100.00;103379.34;4998131;28;45679;-84
2021/12/17 07:52:02;;;;;;;;;36.50;32.50;;;;;11.08;100.00;103356.81;4978450;28;46250;-83
2021/12/17 07:54:28;;;;;;;;;42.00;36.25;;;;;11.28;100.00;103393.91;4996160;28;45449;-83
2021/12/17 07:56:53;;;;;;;;;36.25;32.50;;;;;11.29;100.00;103387.91;4996109;28;45369;-83
2021/12/17 07:59:19;;;;;;;;;32.25;31.50;;;;;11.30;100.00;103388.06;4996591;28;45491;-83
2021/12/17 08:01:45;;;;;;;;;41.75;35.75;;;;;11.28;100.00;103381.81;4996133;28;45739;-83
2021/12/17 08:04:11;;;;;;;;;46.50;33.75;;;;;11.26;100.00;103374.69;4996422;28;45947;-84
2021/12/17 08:06:38;;;;;;;;;43.75;37.00;;;;;11.25;100.00;103380.66;4996397;28;45269;-83
2021/12/17 08:09:05;;;;;;;;;48.25;38.00;;;;;11.27;100.00;103371.34;4995341;28;45403;-82
2021/12/17 08:11:37;;;;;;;;;41.25;34.25;;;;;11.17;100.00;103358.38;4986658;28;45559;-76
2021/12/17 08:14:06;;;;;;;;;35.75;30.50;;;;;11.29;100.00;103375.84;4978562;28;45835;-85
2021/12/17 08:16:41;;;;;;;;;42.75;35.50;;;;;11.30;100.00;103379.34;4996558;28;45523;-77
2021/12/17 08:24:47;;;;;;;;;33.75;31.00;;;;;11.24;100.00;103363.28;4985616;28;45440;-78
2021/12/17 08:30:07;;;;;;;;;39.50;32.00;;;;;11.40;100.00;103389.69;4995080;28;45467;-78
2021/12/17 08:32:36;;;;;;;;;35.50;32.50;;;;;11.43;100.00;103389.97;4993587;28;46567;-82
2021/12/17 08:35:01;;;;;;;;;39.00;33.00;;;;;11.42;100.00;103382.06;4989551;28;45443;-78
2021/12/17 08:37:30;;;;;;;;;37.25;32.25;;;;;11.30;100.00;103363.78;4975789;28;45329;-78
2021/12/17 08:40:00;;;;;;;;;36.00;30.25;;;;;11.40;100.00;103391.41;4976126;28;45552;-79
2021/12/17 08:42:35;;;;;;;;;38.75;31.25;;;;;11.43;100.00;103384.78;4975811;28;45418;-79
2021/12/17 08:45:07;;;;;;;;;39.25;33.50;;;;;11.50;100.00;103396.56;4984653;28;45759;-80
2021/12/17 08:47:33;;;;;;;;;35.00;32.00;;;;;11.49;100.00;103386.09;4989487;28;45427;-79
2021/12/17 08:50:05;;;;;;;;;35.50;31.00;;;;;11.51;100.00;103387.09;4991786;28;45477;-79
2021/12/17 08:52:33;;;;;;;;;37.50;30.75;;;;;11.49;100.00;103388.69;4983909;28;47756;-79
2021/12/17 08:54:59;;;;;;;;;36.25;29.75;;;;;11.37;100.00;103360.00;4988545;28;45454;-79
2021/12/17 08:57:25;;;;;;;;;39.00;33.25;;;;;11.45;100.00;103366.75;4987203;28;45604;-88
2021/12/17 08:59:50;;;;;;;;;36.75;31.75;;;;;11.49;100.00;103375.72;4997246;28;45210;-79
2021/12/17 09:02:16;;;;;;;;;36.75;30.75;;;;;11.50;100.00;103367.16;4986703;28;45859;-81
2021/12/17 09:04:43;;;;;;;;;29.25;27.00;;;;;11.54;100.00;103382.16;4990162;28;45404;-82
2021/12/17 09:07:09;;;;;;;;;37.75;29.75;;;;;11.57;100.00;103392.81;5008100;28;45425;-81
2021/12/17 09:09:35;;;;;;;;;32.75;26.25;;;;;11.55;100.00;103395.28;5012919;28;45646;-78
2021/12/17 09:12:00;;;;;;;;;32.00;28.75;;;;;11.59;100.00;103407.72;5001618;28;46233;-79
2021/12/17 09:14:28;;;;;;;;;41.00;32.25;;;;;11.50;100.00;103385.31;4994389;28;45672;-86
2021/12/17 09:16:55;;;;;;;;;41.00;33.00;;;;;11.63;100.00;103392.41;4993677;28;45394;-80
2021/12/17 09:19:21;;;;;;;;;37.75;33.50;;;;;11.64;100.00;103400.31;4985780;28;45329;-83
2021/12/17 09:21:48;;;;;;;;;29.50;28.50;;;;;11.35;100.00;103349.53;4995604;28;45386;-78
2021/12/17 09:24:14;;;;;;;;;31.25;28.00;;;;;11.56;100.00;103393.59;4998041;28;46146;-77
2021/12/17 09:26:39;;;;;;;;;34.25;30.25;;;;;11.45;100.00;103393.59;4991339;28;46580;-82
2021/12/17 09:29:05;;;;;;;;;30.75;29.25;;;;;11.54;100.00;103410.69;4998287;28;45585;-78
2021/12/17 09:31:31;;;;;;;;;25.00;24.00;;;;;11.51;100.00;103407.84;5010667;28;45938;-80
2021/12/17 09:33:56;;;;;;;;;36.25;28.50;;;;;11.34;100.00;103388.31;4996234;28;45551;-84
2021/12/17 09:36:23;;;;;;;;;29.25;28.00;;;;;11.36;100.00;103391.91;4985881;28;45531;-79
2021/12/17 09:38:49;;;;;;;;;35.00;29.25;;;;;11.44;100.00;103411.66;4980888;28;45532;-79
2021/12/17 09:41:20;;;;;;;;;30.00;26.50;;;;;11.28;100.00;103407.75;4998450;28;45510;-78
2021/12/17 09:43:47;;;;;;;;;26.75;22.25;;;;;11.34;100.00;103427.22;4999075;28;45438;-78
2021/12/17 09:46:14;;;;;;;;;31.25;28.25;;;;;11.24;100.00;103417.75;4998760;28;45285;-83
2021/12/17 09:48:39;;;;;;;;;37.75;33.50;;;;;11.18;100.00;103397.38;4986868;28;45726;-82
2021/12/17 09:51:07;;;;;;;;;34.25;30.25;;;;;11.34;100.00;103435.91;4986955;28;46155;-81
2021/12/17 09:53:34;;;;;;;;;33.00;28.75;;;;;11.36;100.00;103430.81;4977398;28;45601;-82
2021/12/17 09:56:00;;;;;;;;;35.25;26.75;;;;;11.33;100.00;103415.03;4986891;28;45557;-81
2021/12/17 09:58:26;;;;;;;;;34.50;27.25;;;;;11.24;100.00;103405.66;4996752;28;45376;-82
2021/12/17 10:00:52;;;;;;;;;29.75;25.00;;;;;11.41;100.00;103439.91;4995028;28;46185;-78
2021/12/17 10:03:19;;;;;;;;;38.00;26.25;;;;;11.38;100.00;103432.78;4992438;28;45398;-77
2021/12/17 10:05:45;;;;;;;;;32.50;28.50;;;;;11.32;100.00;103421.88;4998658;28;45454;-81
2021/12/17 10:08:12;;;;;;;;;32.75;24.75;;;;;11.41;100.00;103446.00;4999135;28;45499;-79
2021/12/17 10:10:41;;;;;;;;;28.00;25.00;;;;;11.43;100.00;103428.00;4997945;28;45350;-77
2021/12/17 10:13:14;;;;;;;;;21.25;19.25;;;;;11.17;100.00;103392.97;4997349;28;45468;-82
2021/12/17 10:15:43;;;;;;;;;32.00;26.25;;;;;11.40;100.00;103435.50;4995411;28;45480;-83
2021/12/17 10:18:09;;;;;;;;;30.25;25.00;;;;;11.36;100.00;103417.84;4977585;28;45716;-82
2021/12/17 10:20:43;;;;;;;;;32.50;28.25;;;;;11.35;100.00;103419.56;4979373;28;46257;-82
2021/12/17 10:23:11;;;;;;;;;32.00;26.25;;;;;11.27;100.00;103395.56;4979252;28;46093;-84
2021/12/17 10:25:42;;;;;;;;;29.75;23.75;;;;;11.43;100.00;103421.09;4996171;28;45567;-80
2021/12/17 10:28:08;;;;;;;;;30.75;27.25;;;;;11.45;100.00;103422.13;4996666;28;45914;-77
2021/12/17 10:30:37;;;;;;;;;31.75;26.00;;;;;11.46;100.00;103410.06;4994679;28;45538;-80
2021/12/17 10:33:05;;;;;;;;;29.25;24.75;;;;;11.44;100.00;103393.50;4991062;28;46004;-80
2021/12/17 10:35:34;;;;;;;;;28.50;23.00;;;;;11.53;100.00;103408.88;4990561;28;45432;-80
2021/12/17 10:38:06;;;;;;;;;32.50;26.75;;;;;11.44;100.00;103386.59;4984618;28;45544;-81
2021/12/17 10:40:45;;;;;;;;;35.75;28.50;;;;;11.56;100.00;103401.38;4989872;28;45667;-80
2021/12/17 10:43:20;;;;;;;;;33.00;30.00;;;;;11.58;100.00;103405.00;4997123;28;45919;-81
2021/12/17 10:48:35;;;;;;;;;31.25;25.25;;;;;11.63;100.00;103382.03;4998144;28;45473;-79
2021/12/17 10:51:07;;;;;;;;;32.75;25.50;;;;;11.68;100.00;103388.47;4998416;28;46591;-79
2021/12/17 10:53:32;;;;;;;;;32.00;28.50;;;;;11.69;100.00;103382.50;4993222;28;45579;-81
2021/12/17 10:55:59;;;;;;;;;30.00;23.25;;;;;11.58;100.00;103358.28;4988079;28;45510;-79
2021/12/17 10:58:25;;;;;;;;;37.75;30.25;;;;;11.78;100.00;103391.03;4990526;28;45531;-79
2021/12/17 11:01:02;;;;;;;;;29.50;26.75;;;;;11.80;100.00;103378.22;4997751;28;46163;-80
2021/12/17 11:03:29;;;;;;;;;33.50;26.00;;;;;11.85;100.00;103372.59;4998145;28;45317;-84
2021/12/17 11:05:55;;;;;;;;;34.25;28.75;;;;;11.79;100.00;103348.72;5018609;28;45361;-86
2021/12/17 11:08:33;;;;;;;;;34.75;30.00;;;;;11.81;100.00;103347.19;5009764;28;45202;-84
2021/12/17 11:11:09;;;;;;;;;35.00;27.00;;;;;11.96;100.00;103355.28;4993114;28;48355;-79
2021/12/17 11:13:57;;;;;;;;;36.50;30.00;;;;;11.89;100.00;103337.41;4991612;28;46087;-78
2021/12/17 11:16:24;;;;;;;;;35.25;28.00;;;;;12.00;100.00;103341.81;4998771;28;45511;-81
2021/12/17 11:18:50;;;;;;;;;40.75;32.50;;;;;12.07;100.00;103336.31;5000643;28;45540;-79
2021/12/17 11:21:16;;;;;;;;;30.50;25.75;;;;;12.15;100.00;103329.13;4981436;28;46491;-82
2021/12/17 11:23:42;;;;;;;;;26.75;24.50;;;;;12.20;100.00;103338.19;4990151;28;45375;-81
2021/12/17 11:26:08;;;;;;;;;29.25;27.00;;;;;12.21;100.00;103327.00;4996559;28;45487;-81
2021/12/17 11:28:34;;;;;;;;;36.25;29.00;;;;;12.21;100.00;103326.13;4995447;28;45288;-81
2021/12/17 11:31:00;;;;;;;;;43.25;32.00;;;;;12.17;100.00;103314.59;4977229;28;46685;-78
2021/12/17 11:33:27;;;;;;;;;28.00;25.75;;;;;12.32;100.00;103334.72;4992383;28;45498;-81
2021/12/17 11:35:53;;;;;;;;;35.00;27.00;;;;;12.30;100.00;103316.44;4993418;28;45499;-77
2021/12/17 11:38:35;;;;;;;;;35.25;31.75;;;;;12.37;100.00;103329.13;4995669;28;45883;-78
2021/12/17 11:41:14;;;;;;;;;34.50;29.00;;;;;12.34;100.00;103309.78;4977051;28;46978;-76
2021/12/17 11:43:57;;;;;;;;;34.75;28.25;;;;;12.25;100.00;103289.22;4996049;28;45364;-75
2021/12/17 11:46:26;;;;;;;;;36.00;29.50;;;;;12.37;100.00;103305.72;4996034;28;45429;-78
2021/12/17 11:48:57;;;;;;;;;32.50;28.25;;;;;12.42;100.00;103303.50;4995945;28;45542;-77
2021/12/17 11:51:31;;;;;;;;;28.75;27.25;;;;;12.44;100.00;103304.53;4994832;28;45490;-77
2021/12/17 11:54:14;;;;;;;;;32.50;27.50;;;;;12.53;100.00;103315.63;4995393;28;45444;-77
2021/12/17 11:56:45;;;;;;;;;35.75;30.50;;;;;12.57;100.00;103302.88;4995464;28;45475;-77
2021/12/17 11:59:26;;;;;;;;;35.50;27.00;;;;;12.59;100.00;103306.50;4996227;28;45642;-78
2021/12/17 12:02:19;;;;;;;;;34.75;27.50;;;;;12.46;100.00;103283.88;4994926;28;46312;-78
2021/12/17 12:05:06;;;;;;;;;29.75;28.75;;;;;12.51;100.00;103299.03;4994978;28;45728;-77
2021/12/17 12:07:37;;;;;;;;;26.25;25.75;;;;;12.43;100.00;103294.03;4995040;28;45538;-76
2021/12/17 12:10:13;;;;;;;;;37.75;32.25;;;;;12.41;100.00;103287.78;4994368;28;45523;-77
2021/12/17 12:12:38;;;;;;;;;32.25;28.75;;;;;12.41;100.00;103293.00;4994776;28;45867;-77
2021/12/17 12:15:23;;;;;;;;;29.50;28.00;;;;;12.42;100.00;103290.50;4977965;28;45397;-78
2021/12/17 12:17:57;;;;;;;;;29.50;28.00;;;;;12.42;100.00;103289.59;4995833;28;45348;-78
2021/12/17 12:20:47;;;;;;;;;37.50;31.50;;;;;12.43;100.00;103286.22;4996051;28;45379;-78
2021/12/17 12:23:32;;;;;;;;;32.75;29.00;;;;;12.45;100.00;103288.16;4995699;28;46442;-76
2021/12/17 12:26:03;;;;;;;;;31.25;27.25;;;;;12.45;100.00;103290.75;4995292;28;45378;-79
2021/12/17 12:28:50;;;;;;;;;32.25;29.25;;;;;12.48;100.00;103280.59;4995686;28;45325;-78
2021/12/17 12:31:18;;;;;;;;;33.50;28.50;;;;;12.52;100.00;103277.47;4994323;28;45345;-78
2021/12/17 12:34:06;;;;;;;;;27.00;25.25;;;;;12.54;100.00;103278.44;4995213;28;45959;-77
2021/12/17 12:36:47;;;;;;;;;34.25;31.75;;;;;12.59;100.00;103270.13;4998549;28;45230;-77
2021/12/17 12:39:23;;;;;;;;;29.75;26.75;;;;;12.60;100.00;103265.03;4981681;28;45462;-78
2021/12/17 12:42:06;;;;;;;;;35.00;29.75;;;;;12.68;100.00;103268.22;4999733;28;45274;-77
2021/12/17 12:44:44;;;;;;;;;39.50;30.25;;;;;12.72;100.00;103267.66;4999701;28;45365;-75
2021/12/17 12:47:29;;;;;;;;;25.25;22.75;;;;;12.75;100.00;103264.38;4998615;28;46091;-75
2021/12/17 12:50:04;;;;;;;;;29.75;25.50;;;;;12.78;100.00;103264.63;4994252;28;45506;-79
2021/12/17 12:52:29;;;;;;;;;33.25;28.00;;;;;12.81;100.00;103263.16;4998111;28;45629;-80
2021/12/17 12:55:05;;;;;;;;;35.00;28.50;;;;;12.82;100.00;103264.03;4996485;28;45948;-80
2021/12/17 12:57:37;;;;;;;;;25.00;24.00;;;;;12.89;100.00;103268.00;4998348;28;45797;-79
2021/12/17 13:00:09;;;;;;;;;29.75;26.25;;;;;12.95;100.00;103250.28;4998404;28;45341;-81
2021/12/17 13:02:35;;;;;;;;;30.75;26.75;;;;;13.01;100.00;103250.72;4998627;28;45476;-77
2021/12/17 13:05:01;;;;;;;;;30.75;26.25;;;;;13.03;100.00;103243.03;4997870;28;46216;-79
2021/12/17 13:07:35;;;;;;;;;35.50;31.50;;;;;13.01;100.00;103237.72;4993669;28;46603;-84
2021/12/17 13:10:21;;;;;;;;;30.50;25.25;;;;;13.07;100.00;103252.88;4993094;28;45476;-82
2021/12/17 13:12:55;;;;;;;;;33.75;27.50;;;;;12.80;100.00;103213.63;5002809;28;45380;-83
2021/12/17 13:23:56;;;;;;;;;26.25;23.25;;;;;12.95;100.00;103227.78;4983131;28;45350;-78
2021/12/17 13:26:26;;;;;;;;;24.50;24.50;;;;;13.09;100.00;103238.31;4979606;28;45342;-77
2021/12/17 13:29:06;;;;;;;;;29.75;26.25;;;;;13.12;100.00;103230.72;4978435;28;45874;-77
2021/12/17 13:31:40;;;;;;;;;31.00;27.50;;;;;13.20;100.00;103234.78;4977079;28;45537;-79
2021/12/17 13:34:08;;;;;;;;;30.50;25.50;;;;;13.19;100.00;103239.88;4976970;28;45299;-77
2021/12/17 13:36:34;;;;;;;;;28.75;22.75;;;;;12.92;100.00;103208.44;4976270;28;46932;-79
2021/12/17 13:38:59;;;;;;;;;30.00;27.25;;;;;12.94;100.00;103249.38;4977520;28;45489;-79
2021/12/17 13:41:39;;;;;;;;;30.75;25.50;;;;;12.90;100.00;103254.22;4990538;28;45401;-79
2021/12/17 13:44:23;;;;;;;;;31.75;26.50;;;;;12.83;100.00;103245.06;4998234;28;45483;-79
2021/12/17 13:46:49;;;;;;;;;26.00;23.50;;;;;12.80;100.00;103247.41;4996672;28;46504;-78
2021/12/17 13:49:15;;;;;;;;;23.50;20.25;;;;;12.73;100.00;103237.38;4997098;28;45409;-78
2021/12/17 13:51:40;;;;;;;;;30.00;26.50;;;;;12.62;100.00;103228.78;4980664;28;45369;-80
2021/12/17 13:54:07;;;;;;;;;26.50;25.00;;;;;12.65;100.00;103242.91;4988830;28;45437;-78
2021/12/17 13:56:32;;;;;;;;;28.75;25.00;;;;;12.56;100.00;103226.63;4977626;28;45366;-78
2021/12/17 13:59:02;;;;;;;;;24.00;23.00;;;;;12.61;100.00;103222.66;4976610;28;45298;-79